Time;durP1;ratioP1;P1;durP2;ratioP2;P2;SDS_P1;SDS_P2;PMS_P1;PMS_P2;Temp;Humidity;BMP_temperature;BMP_pressure;BME280_temperature;BME280_humidity;BME280_pressure;Samples;Min_cycle;Max_cycle;Signal;HPM_P1;HPM_P2
2022/10/29 00:02:20;;;;;;;60.33;30.92;;;;;;;12.36;100.00;102036.25;5073583;28;20031;-50
2022/10/29 00:04:46;;;;;;;54.88;30.67;;;;;;;12.35;100.00;102031.91;5072645;28;20027;-48
2022/10/29 00:07:11;;;;;;;75.30;36.38;;;;;;;12.41;100.00;102027.00;5073311;28;20090;-51
2022/10/29 00:09:36;;;;;;;82.70;36.67;;;;;;;12.37;100.00;102019.94;5073716;28;20508;-50
2022/10/29 00:12:01;;;;;;;69.38;34.83;;;;;;;12.36;100.00;102018.16;5072515;28;20079;-50
2022/10/29 00:14:27;;;;;;;66.30;32.17;;;;;;;12.27;100.00;102018.66;5073251;28;20513;-50
2022/10/29 00:16:52;;;;;;;63.65;31.52;;;;;;;12.19;100.00;102009.72;5073148;28;20028;-51
2022/10/29 00:19:17;;;;;;;78.00;38.65;;;;;;;12.27;100.00;102012.63;5072564;28;20551;-50
2022/10/29 00:21:42;;;;;;;83.55;37.83;;;;;;;12.21;100.00;102018.41;5073101;28;20032;-50
2022/10/29 00:24:09;;;;;;;74.28;37.97;;;;;;;12.17;100.00;102007.09;5072444;28;20024;-50
2022/10/29 00:26:34;;;;;;;70.10;35.92;;;;;;;12.15;100.00;102021.63;5073095;28;20479;-50
2022/10/29 00:28:59;;;;;;;74.20;36.22;;;;;;;12.13;100.00;102025.84;5072984;28;20112;-51
2022/10/29 00:31:25;;;;;;;67.35;32.63;;;;;;;12.00;100.00;102018.38;5072265;28;20112;-51
2022/10/29 00:33:52;;;;;;;63.30;33.38;;;;;;;11.92;100.00;102030.94;5072986;28;20029;-49
2022/10/29 00:36:22;;;;;;;66.80;33.80;;;;;;;11.98;100.00;102031.25;5072912;28;20017;-51
2022/10/29 00:38:48;;;;;;;56.75;30.98;;;;;;;11.96;100.00;102034.59;5072410;28;20021;-49
2022/10/29 00:41:16;;;;;;;57.83;31.25;;;;;;;11.92;100.00;102024.91;5073068;28;20028;-50
2022/10/29 00:43:50;;;;;;;59.72;32.97;;;;;;;11.95;100.00;102031.09;5072718;28;20081;-47
2022/10/29 00:46:34;;;;;;;69.43;34.30;;;;;;;12.02;100.00;102032.28;5072177;28;20025;-51
2022/10/29 00:49:01;;;;;;;79.90;37.78;;;;;;;12.10;100.00;102024.84;5072086;28;20379;-51
2022/10/29 00:51:29;;;;;;;73.68;36.78;;;;;;;12.13;100.00;102036.16;5073021;28;20037;-50
2022/10/29 00:54:00;;;;;;;70.63;36.00;;;;;;;12.18;100.00;102034.66;5071945;28;20115;-50
2022/10/29 00:56:28;;;;;;;68.35;36.22;;;;;;;12.25;100.00;102034.94;5072863;28;20082;-50
2022/10/29 00:58:54;;;;;;;85.25;38.35;;;;;;;12.31;100.00;102030.03;5072622;28;20044;-51
2022/10/29 01:01:19;;;;;;;91.65;41.00;;;;;;;12.35;100.00;102031.91;5071929;28;20108;-47
2022/10/29 01:03:45;;;;;;;94.95;45.08;;;;;;;12.44;100.00;102034.88;5072827;28;20033;-49
2022/10/29 01:06:12;;;;;;;97.40;44.25;;;;;;;12.52;100.00;102030.91;5071947;28;20476;-50
2022/10/29 01:08:37;;;;;;;82.53;42.85;;;;;;;12.55;100.00;102032.75;5072801;28;20032;-50
2022/10/29 01:11:27;;;;;;;84.82;40.15;;;;;;;12.56;100.00;102031.03;5072648;28;20024;-50
2022/10/29 01:14:07;;;;;;;95.57;41.75;;;;;;;12.59;100.00;102020.78;5071946;28;20043;-50
2022/10/29 01:16:44;;;;;;;80.47;39.88;;;;;;;12.58;100.00;102013.88;5072787;28;20025;-50
2022/10/29 01:19:18;;;;;;;73.75;40.17;;;;;;;12.60;100.00;102009.63;5072513;28;20463;-50
2022/10/29 01:21:47;;;;;;;80.15;36.80;;;;;;;12.57;100.00;102006.94;5071761;28;20036;-49
2022/10/29 01:24:42;;;;;;;77.78;37.88;;;;;;;12.57;100.00;102001.75;5072447;28;20058;-51
2022/10/29 01:27:30;;;;;;;74.45;37.17;;;;;;;12.51;100.00;102003.28;5072595;28;20045;-50
2022/10/29 01:30:20;;;;;;;82.47;38.88;;;;;;;12.56;100.00;102007.75;5063868;28;20087;-51
2022/10/29 01:32:58;;;;;;;84.32;41.63;;;;;;;12.53;100.00;102011.09;5072549;28;20114;-50
2022/10/29 01:35:38;;;;;;;84.00;39.22;;;;;;;12.46;100.00;102003.88;5071815;28;20039;-50
2022/10/29 01:38:03;;;;;;;85.88;41.25;;;;;;;12.46;100.00;101996.13;5072385;28;20032;-49
2022/10/29 01:40:49;;;;;;;88.77;41.13;;;;;;;12.44;100.00;102003.84;5072309;28;20040;-50
2022/10/29 01:43:24;;;;;;;78.05;38.40;;;;;;;12.33;100.00;101995.66;5071828;28;20283;-48
2022/10/29 01:46:22;;;;;;;67.32;35.58;;;;;;;12.28;100.00;101985.97;5072084;28;20076;-48
2022/10/29 01:48:53;;;;;;;83.25;38.03;;;;;;;12.21;100.00;101981.34;5065931;28;20115;-49
2022/10/29 01:51:25;;;;;;;88.88;41.47;;;;;;;12.21;100.00;101976.19;5072226;28;20021;-47
2022/10/29 01:53:51;;;;;;;91.40;40.88;;;;;;;12.19;100.00;101971.81;5072260;28;20115;-50
2022/10/29 01:56:16;;;;;;;90.97;41.30;;;;;;;12.17;100.00;101965.72;5071334;28;20052;-50
2022/10/29 01:58:48;;;;;;;84.55;41.58;;;;;;;12.13;100.00;101961.22;5072210;28;20028;-50
2022/10/29 02:02:00;;;;;;;87.10;43.22;;;;;;;12.08;100.00;101954.13;5075147;28;20020;-51
2022/10/29 02:05:17;;;;;;;86.68;40.60;;;;;;;12.05;100.00;101957.47;5075167;28;20115;-47
2022/10/29 02:07:53;;;;;;;97.63;41.85;;;;;;;12.00;100.00;101958.97;4994281;28;20482;-49
2022/10/29 02:10:22;;;;;;;94.00;42.90;;;;;;;11.98;100.00;101958.00;4993548;28;20134;-50
2022/10/29 02:12:51;;;;;;;97.68;43.55;;;;;;;12.00;100.00;101961.56;5047112;28;20111;-50
2022/10/29 02:15:32;;;;;;;88.90;43.78;;;;;;;12.01;100.00;101963.31;5075402;28;20357;-48
2022/10/29 02:17:59;;;;;;;86.13;40.30;;;;;;;11.97;100.00;101961.44;5074863;28;20043;-51
2022/10/29 02:20:24;;;;;;;85.72;41.42;;;;;;;11.93;100.00;101959.47;5075535;28;20025;-51
2022/10/29 02:22:49;;;;;;;77.85;39.15;;;;;;;11.83;100.00;101953.94;5075355;28;20027;-51
2022/10/29 02:25:15;;;;;;;77.28;38.60;;;;;;;11.85;100.00;101954.91;5074871;28;20036;-51
2022/10/29 02:27:40;;;;;;;71.78;37.20;;;;;;;11.77;100.00;101951.09;5075589;28;20042;-51
2022/10/29 02:30:06;;;;;;;76.85;36.13;;;;;;;11.72;100.00;101949.13;5075332;28;20029;-50
2022/10/29 02:32:32;;;;;;;73.22;38.08;;;;;;;11.67;100.00;101946.34;5074588;28;20036;-49
2022/10/29 02:35:01;;;;;;;79.47;38.47;;;;;;;11.63;100.00;101944.47;5075111;28;20032;-49
2022/10/29 02:37:27;;;;;;;88.15;40.50;;;;;;;11.70;100.00;101937.03;5075215;28;20464;-51
2022/10/29 02:39:52;;;;;;;89.85;41.05;;;;;;;11.67;100.00;101936.03;5074540;28;20027;-49
2022/10/29 02:42:17;;;;;;;89.55;40.97;;;;;;;11.65;100.00;101932.50;5075188;28;20029;-50
2022/10/29 02:44:42;;;;;;;91.05;40.15;;;;;;;11.62;100.00;101935.84;5074178;28;20045;-49
2022/10/29 02:47:08;;;;;;;82.85;39.22;;;;;;;11.59;100.00;101924.50;5075062;28;20375;-50
2022/10/29 02:49:33;;;;;;;86.47;41.85;;;;;;;11.56;100.00;101925.25;5075041;28;20024;-51
2022/10/29 02:51:58;;;;;;;87.25;40.25;;;;;;;11.57;100.00;101918.38;5074375;28;20021;-51
2022/10/29 02:54:23;;;;;;;95.95;39.30;;;;;;;11.51;100.00;101927.63;5074739;28;20039;-48
2022/10/29 02:56:49;;;;;;;74.57;38.55;;;;;;;11.50;100.00;101923.28;5074856;28;20361;-50
2022/10/29 02:59:14;;;;;;;82.28;40.97;;;;;;;11.50;100.00;101924.97;5074149;28;20035;-50
2022/10/29 03:01:39;;;;;;;86.30;40.65;;;;;;;11.47;100.00;101928.31;5074912;28;20016;-49
2022/10/29 03:04:04;;;;;;;93.93;42.13;;;;;;;11.48;100.00;101924.91;5074638;28;20373;-51
2022/10/29 03:06:30;;;;;;;77.28;38.72;;;;;;;11.50;100.00;101923.28;5074115;28;20052;-50
2022/10/29 03:08:55;;;;;;;86.05;39.50;;;;;;;11.46;100.00;101915.34;5074659;28;20038;-51
2022/10/29 03:11:20;;;;;;;83.32;39.22;;;;;;;11.41;100.00;101922.00;5074040;28;20027;-51
2022/10/29 03:13:45;;;;;;;71.72;36.55;;;;;;;11.36;100.00;101907.19;5073727;28;20036;-50
2022/10/29 03:16:11;;;;;;;75.30;38.63;;;;;;;11.31;100.00;101919.03;5074560;28;20504;-50
2022/10/29 03:18:36;;;;;;;80.35;37.50;;;;;;;11.29;100.00;101910.31;5074374;28;20024;-50
2022/10/29 03:21:02;;;;;;;75.30;39.28;;;;;;;11.27;100.00;101911.97;5073747;28;20060;-51
2022/10/29 03:23:27;;;;;;;86.78;40.67;;;;;;;11.31;100.00;101912.97;5074525;28;20047;-51
2022/10/29 03:25:53;;;;;;;91.50;41.15;;;;;;;11.28;100.00;101905.97;5074008;28;20361;-50
2022/10/29 03:28:20;;;;;;;86.65;39.90;;;;;;;11.24;100.00;101909.22;5073461;28;20357;-47
2022/10/29 03:30:46;;;;;;;93.32;38.97;;;;;;;11.19;100.00;101903.91;5074135;28;20107;-51
2022/10/29 03:33:11;;;;;;;79.43;39.78;;;;;;;11.20;100.00;101903.06;5073922;28;20064;-50
2022/10/29 03:35:36;;;;;;;75.93;39.17;;;;;;;11.23;100.00;101897.13;5073557;28;20070;-50
2022/10/29 03:38:02;;;;;;;87.30;40.33;;;;;;;11.24;100.00;101896.34;5073925;28;20052;-50
2022/10/29 03:40:27;;;;;;;84.60;41.53;;;;;;;11.30;100.00;101888.88;5073838;28;20078;-50
2022/10/29 03:42:52;;;;;;;81.93;39.28;;;;;;;11.38;100.00;101891.78;5073079;28;20025;-50
2022/10/29 03:45:18;;;;;;;90.22;43.35;;;;;;;11.41;100.00;101891.91;5073653;28;20048;-50
2022/10/29 03:47:43;;;;;;;81.40;40.63;;;;;;;11.44;100.00;101888.56;5073683;28;20016;-50
2022/10/29 03:50:08;;;;;;;81.88;39.90;;;;;;;11.47;100.00;101881.84;5073007;28;20059;-50
2022/10/29 03:52:34;;;;;;;82.78;41.30;;;;;;;11.52;100.00;101884.63;5074087;28;20103;-50
2022/10/29 03:54:59;;;;;;;75.13;40.15;;;;;;;11.55;100.00;101883.88;5072946;28;20043;-51
2022/10/29 03:57:24;;;;;;;90.32;41.35;;;;;;;11.58;100.00;101886.56;5073698;28;20032;-50
2022/10/29 03:59:50;;;;;;;79.55;40.33;;;;;;;11.63;100.00;101880.81;5073522;28;20028;-50
2022/10/29 04:02:15;;;;;;;76.78;38.53;;;;;;;11.65;100.00;101876.56;5072847;28;20702;-50
2022/10/29 04:04:40;;;;;;;73.88;37.47;;;;;;;11.61;100.00;101874.69;5073395;28;20024;-49
2022/10/29 04:07:05;;;;;;;70.25;36.33;;;;;;;11.56;100.00;101859.81;5073322;28;20028;-50
2022/10/29 04:09:31;;;;;;;65.30;36.00;;;;;;;11.59;100.00;101859.94;5072846;28;20460;-51
2022/10/29 04:11:56;;;;;;;72.32;37.03;;;;;;;11.59;100.00;101855.66;5073449;28;20086;-47
2022/10/29 04:14:21;;;;;;;67.63;34.58;;;;;;;11.51;100.00;101857.03;5073300;28;20474;-49
2022/10/29 04:16:46;;;;;;;74.22;37.97;;;;;;;11.55;100.00;101858.06;5072364;28;20032;-51
2022/10/29 04:19:12;;;;;;;67.85;35.85;;;;;;;11.55;100.00;101858.06;5073148;28;20024;-48
2022/10/29 04:21:37;;;;;;;67.97;35.50;;;;;;;11.52;100.00;101849.34;5073586;28;20021;-50
2022/10/29 04:24:03;;;;;;;70.05;36.15;;;;;;;11.53;100.00;101848.53;5071618;28;20388;-50
2022/10/29 04:26:28;;;;;;;73.78;38.78;;;;;;;11.58;100.00;101845.25;5073022;28;20407;-51
2022/10/29 04:28:53;;;;;;;82.07;38.42;;;;;;;11.53;100.00;101845.97;5073102;28;20499;-51
2022/10/29 04:31:19;;;;;;;69.28;37.92;;;;;;;11.55;100.00;101848.59;5072374;28;20384;-50
2022/10/29 04:33:45;;;;;;;77.22;37.78;;;;;;;11.60;100.00;101846.22;5072890;28;20028;-49
2022/10/29 04:36:11;;;;;;;82.82;38.03;;;;;;;11.60;100.00;101835.91;5073121;28;20353;-51
2022/10/29 04:38:36;;;;;;;80.28;38.60;;;;;;;11.62;100.00;101829.06;5072459;28;20056;-50
2022/10/29 04:41:03;;;;;;;88.88;41.60;;;;;;;11.61;100.00;101833.38;5073129;28;20071;-51
2022/10/29 04:43:29;;;;;;;69.93;37.78;;;;;;;11.63;100.00;101836.91;5073134;28;20032;-50
2022/10/29 04:45:56;;;;;;;73.45;34.88;;;;;;;11.45;100.00;101844.78;5071890;28;20507;-50
2022/10/29 04:48:22;;;;;;;65.78;34.13;;;;;;;11.45;100.00;101847.34;5072817;28;20051;-49
2022/10/29 04:50:48;;;;;;;69.18;33.35;;;;;;;11.40;100.00;101851.44;5072726;28;20460;-50
2022/10/29 04:53:14;;;;;;;63.90;32.88;;;;;;;11.30;100.00;101857.03;5072295;28;20039;-50
2022/10/29 04:55:39;;;;;;;56.58;30.88;;;;;;;11.26;100.00;101849.94;5072828;28;20028;-50
2022/10/29 04:58:05;;;;;;;57.45;31.00;;;;;;;11.15;100.00;101845.19;5072756;28;20029;-50
2022/10/29 05:00:32;;;;;;;68.95;32.35;;;;;;;11.20;100.00;101850.56;5071963;28;20067;-50
2022/10/29 05:02:57;;;;;;;58.40;31.70;;;;;;;11.10;100.00;101856.16;5072654;28;20040;-49
2022/10/29 05:05:22;;;;;;;44.47;26.20;;;;;;;10.99;100.00;101835.94;5072194;28;20028;-50
2022/10/29 05:07:48;;;;;;;46.97;27.55;;;;;;;11.02;100.00;101841.22;5072739;28;20063;-50
2022/10/29 05:10:13;;;;;;;50.85;28.52;;;;;;;11.06;100.00;101839.66;5072669;28;20388;-49
2022/10/29 05:12:39;;;;;;;50.80;29.63;;;;;;;11.03;100.00;101835.25;5071924;28;20029;-49
2022/10/29 05:15:05;;;;;;;54.65;31.25;;;;;;;11.08;100.00;101825.13;5072462;28;20482;-50
2022/10/29 05:17:31;;;;;;;66.35;35.28;;;;;;;11.04;100.00;101833.56;5072335;28;20440;-49
2022/10/29 05:19:56;;;;;;;78.10;39.85;;;;;;;11.10;100.00;101838.97;5071919;28;20052;-50
2022/10/29 05:22:21;;;;;;;82.57;39.88;;;;;;;11.09;100.00;101826.91;5072635;28;20484;-51
2022/10/29 05:24:47;;;;;;;81.78;41.30;;;;;;;11.13;100.00;101833.94;5072487;28;20032;-50
2022/10/29 05:27:12;;;;;;;80.93;40.45;;;;;;;11.11;100.00;101820.09;5071739;28;20099;-50
2022/10/29 05:29:37;;;;;;;85.13;42.22;;;;;;;11.18;100.00;101827.28;5072463;28;20027;-50
2022/10/29 05:32:03;;;;;;;81.70;42.90;;;;;;;11.22;100.00;101822.25;5072300;28;20434;-50
2022/10/29 05:34:28;;;;;;;80.78;39.28;;;;;;;11.17;100.00;101825.53;5072016;28;20039;-50
2022/10/29 05:36:53;;;;;;;59.65;32.65;;;;;;;11.19;100.00;101823.91;5076395;28;20553;-50
2022/10/29 05:39:18;;;;;;;52.88;30.92;;;;;;;11.14;100.00;101819.34;5076408;28;20021;-50
2022/10/29 05:41:45;;;;;;;53.38;33.70;;;;;;;11.08;100.00;101809.66;5075510;28;20086;-50
2022/10/29 05:44:10;;;;;;;54.63;33.70;;;;;;;11.16;100.00;101813.44;5076035;28;20080;-51
2022/10/29 05:46:35;;;;;;;66.22;36.05;;;;;;;11.20;100.00;101811.88;5076154;28;20063;-51
2022/10/29 05:49:01;;;;;;;72.03;40.15;;;;;;;11.29;100.00;101816.53;5075409;28;20387;-50
2022/10/29 05:51:26;;;;;;;77.05;41.92;;;;;;;11.35;100.00;101811.66;5076167;28;20481;-50
2022/10/29 05:53:51;;;;;;;76.55;42.50;;;;;;;11.41;100.00;101819.63;5075935;28;20079;-49
2022/10/29 05:56:17;;;;;;;92.53;44.25;;;;;;;11.41;100.00;101811.88;5075102;28;20037;-47
2022/10/29 05:58:42;;;;;;;69.95;37.20;;;;;;;11.24;100.00;101803.44;5075978;28;20433;-48
2022/10/29 06:01:08;;;;;;;78.22;40.75;;;;;;;11.32;100.00;101808.91;5075791;28;20025;-50
2022/10/29 06:03:34;;;;;;;80.60;42.72;;;;;;;11.33;100.00;101806.41;5075426;28;20017;-50
2022/10/29 06:05:59;;;;;;;96.28;44.83;;;;;;;11.38;100.00;101798.84;5075789;28;20024;-50
2022/10/29 06:08:24;;;;;;;79.43;41.63;;;;;;;11.41;100.00;101792.94;5076018;28;20147;-48
2022/10/29 06:10:50;;;;;;;105.63;49.08;;;;;;;11.47;100.00;101794.06;5074978;28;20026;-50
2022/10/29 06:13:17;;;;;;;123.38;56.85;;;;;;;11.57;100.00;101795.34;5075514;28;20032;-50
2022/10/29 06:15:43;;;;;;;134.15;58.20;;;;;;;11.62;100.00;101793.81;5074626;28;20032;-50
2022/10/29 06:18:09;;;;;;;115.15;53.83;;;;;;;11.65;100.00;101799.09;5075786;28;20047;-51
2022/10/29 06:20:36;;;;;;;109.95;52.35;;;;;;;11.65;100.00;101803.41;5075714;28;20024;-48
2022/10/29 06:23:01;;;;;;;120.93;54.35;;;;;;;11.68;100.00;101807.00;5074704;28;20031;-51
2022/10/29 06:25:27;;;;;;;181.82;96.13;;;;;;;11.69;100.00;101805.28;5075393;28;20032;-51
2022/10/29 06:27:59;;;;;;;121.82;57.67;;;;;;;11.76;100.00;101809.88;5075273;28;20447;-48
2022/10/29 06:30:25;;;;;;;121.68;57.65;;;;;;;11.80;100.00;101809.19;5074539;28;20099;-50
2022/10/29 06:32:50;;;;;;;140.07;59.03;;;;;;;11.85;100.00;101812.84;5075206;28;20104;-47
2022/10/29 06:35:15;;;;;;;128.23;55.65;;;;;;;11.88;100.00;101813.75;5075132;28;20039;-48
2022/10/29 06:37:40;;;;;;;128.40;57.72;;;;;;;11.94;100.00;101816.59;5074646;28;20492;-49
2022/10/29 06:40:06;;;;;;;129.88;57.10;;;;;;;11.97;100.00;101814.19;5074949;28;20028;-50
2022/10/29 06:42:31;;;;;;;129.38;59.08;;;;;;;12.02;100.00;101810.06;5075201;28;20028;-49
2022/10/29 06:44:57;;;;;;;133.73;58.70;;;;;;;12.05;100.00;101815.34;5074004;28;20037;-49
2022/10/29 06:47:23;;;;;;;126.80;54.20;;;;;;;12.01;100.00;101821.22;5073861;28;20407;-48
2022/10/29 06:49:48;;;;;;;140.50;56.13;;;;;;;12.00;100.00;101822.03;5074980;28;20115;-48
2022/10/29 06:52:14;;;;;;;107.85;50.63;;;;;;;11.93;100.00;101815.72;5074245;28;20075;-50
2022/10/29 06:54:39;;;;;;;108.88;49.55;;;;;;;11.90;100.00;101818.16;5075023;28;20096;-51
2022/10/29 06:57:04;;;;;;;109.97;51.10;;;;;;;11.95;100.00;101819.25;5074856;28;20031;-47
2022/10/29 06:59:29;;;;;;;128.93;56.53;;;;;;;12.05;100.00;101819.66;5073983;28;20025;-49
2022/10/29 07:01:55;;;;;;;125.28;57.17;;;;;;;12.07;100.00;101824.06;5074885;28;20023;-51
2022/10/29 07:04:20;;;;;;;144.60;62.28;;;;;;;12.11;100.00;101823.34;5074568;28;20032;-50
2022/10/29 07:06:45;;;;;;;142.18;63.40;;;;;;;12.14;100.00;101822.56;5073728;28;20111;-47
2022/10/29 07:09:10;;;;;;;143.02;62.35;;;;;;;12.15;100.00;101822.63;5074680;28;20059;-47
2022/10/29 07:11:36;;;;;;;136.75;62.85;;;;;;;12.19;100.00;101824.50;5074673;28;20037;-51
2022/10/29 07:14:01;;;;;;;125.55;58.10;;;;;;;12.22;100.00;101820.28;5073525;28;20495;-47
2022/10/29 07:16:26;;;;;;;126.30;58.13;;;;;;;12.26;100.00;101817.00;5074647;28;20029;-50
2022/10/29 07:18:52;;;;;;;122.18;55.20;;;;;;;12.27;100.00;101816.19;5074448;28;20051;-50
2022/10/29 07:21:18;;;;;;;112.75;53.10;;;;;;;12.28;100.00;101815.38;5073908;28;20020;-49
2022/10/29 07:23:43;;;;;;;116.72;51.65;;;;;;;12.28;100.00;101817.94;5074171;28;20028;-50
2022/10/29 07:26:08;;;;;;;115.93;52.15;;;;;;;12.35;100.00;101817.34;5073373;28;20029;-47
2022/10/29 07:28:34;;;;;;;119.40;54.20;;;;;;;12.42;100.00;101811.59;5074151;28;20032;-49
2022/10/29 07:31:00;;;;;;;120.05;54.88;;;;;;;12.47;100.00;101810.06;5074238;28;20025;-49
2022/10/29 07:33:28;;;;;;;115.05;55.25;;;;;;;12.51;100.00;101804.16;5073461;28;20028;-47
2022/10/29 07:35:56;;;;;;;120.35;52.55;;;;;;;12.48;100.00;101790.25;5074070;28;20099;-47
2022/10/29 07:38:21;;;;;;;118.78;53.65;;;;;;;12.57;100.00;101797.47;5074027;28;20044;-49
2022/10/29 07:40:48;;;;;;;115.30;56.22;;;;;;;12.71;100.00;101797.97;5073178;28;20468;-49
2022/10/29 07:43:14;;;;;;;125.50;56.83;;;;;;;12.71;100.00;101800.56;5073852;28;20040;-51
2022/10/29 07:45:41;;;;;;;113.43;52.55;;;;;;;12.70;100.00;101797.06;5073690;28;20055;-50
2022/10/29 07:48:08;;;;;;;108.97;53.17;;;;;;;12.74;100.00;101795.47;5073184;28;20033;-50
2022/10/29 07:50:35;;;;;;;112.05;52.10;;;;;;;12.74;100.00;101798.94;5073951;28;20024;-48
2022/10/29 07:53:02;;;;;;;107.53;50.65;;;;;;;12.82;100.00;101792.34;5073561;28;20020;-48
2022/10/29 07:55:27;;;;;;;124.25;52.30;;;;;;;12.90;100.00;101800.38;5072725;28;20036;-50
2022/10/29 07:58:20;;;;;;;105.78;48.42;;;;;;;12.92;100.00;101797.84;5073182;28;20089;-51
2022/10/29 08:00:45;;;;;;;108.00;47.58;;;;;;;12.93;100.00;101789.25;5073141;28;20041;-49
2022/10/29 08:03:11;;;;;;;110.63;49.97;;;;;;;12.96;100.00;101795.44;5072894;28;20055;-52
2022/10/29 08:05:36;;;;;;;102.32;49.08;;;;;;;13.04;100.00;101797.38;5073576;28;20460;-50
2022/10/29 08:08:02;;;;;;;101.03;50.78;;;;;;;13.15;100.00;101804.69;5073449;28;20028;-51
2022/10/29 08:10:29;;;;;;;108.35;50.88;;;;;;;13.20;100.00;101791.03;5072504;28;20031;-50
2022/10/29 08:12:56;;;;;;;109.00;52.00;;;;;;;13.31;100.00;101794.84;5073408;28;20021;-50
2022/10/29 08:15:22;;;;;;;;;;;;;;;13.40;100.00;101794.31;5073027;28;20468;-52
2022/10/29 08:17:48;;;;;;;108.95;50.65;;;;;;;13.48;100.00;101785.97;5073204;28;19939;-50
2022/10/29 08:20:14;;;;;;;110.15;54.15;;;;;;;13.65;100.00;101783.06;5073187;28;20536;-49
2022/10/29 08:22:40;;;;;;;93.45;47.70;;;;;;;13.79;100.00;101781.78;5072505;28;20020;-50
2022/10/29 08:25:05;;;;;;;101.53;50.47;;;;;;;13.80;100.00;101788.72;5073067;28;20059;-51
2022/10/29 08:27:30;;;;;;;90.47;47.92;;;;;;;13.87;100.00;101783.75;5072956;28;20453;-51
2022/10/29 08:29:56;;;;;;;97.57;46.70;;;;;;;13.95;100.00;101771.88;5072347;28;20033;-50
2022/10/29 08:32:21;;;;;;;100.72;46.90;;;;;;;13.99;100.00;101769.47;5073142;28;20020;-48
2022/10/29 08:34:46;;;;;;;109.05;43.28;;;;;;;13.98;100.00;101772.88;5072992;28;20032;-51
2022/10/29 08:37:11;;;;;;;97.78;47.17;;;;;;;14.01;100.00;101769.50;5072268;28;20029;-48
2022/10/29 08:39:37;;;;;;;95.22;44.90;;;;;;;14.05;100.00;101773.06;5072986;28;20838;-51
2022/10/29 08:42:43;;;;;;;101.93;47.30;;;;;;;14.15;100.00;101785.44;5073032;28;20032;-51
2022/10/29 08:45:27;;;;;;;89.82;45.67;;;;;;;14.25;100.00;101786.59;5071953;28;20082;-50
2022/10/29 08:47:55;;;;;;;100.85;50.38;;;;;;;14.46;100.00;101797.59;5072646;28;20428;-50
2022/10/29 08:50:28;;;;;;;115.15;54.33;;;;;;;14.64;100.00;101796.38;5072444;28;20047;-50
2022/10/29 08:52:54;;;;;;;102.55;47.83;;;;;;;14.68;100.00;101777.50;5072867;28;20022;-48
2022/10/29 08:55:23;;;;;;;84.85;41.90;;;;;;;14.68;100.00;101776.59;5072728;28;20039;-50
2022/10/29 08:57:58;;;;;;;85.65;42.42;;;;;;;14.80;100.00;101775.22;5071912;28;20028;-50
2022/10/29 09:00:33;;;;;;;72.00;39.58;;;;;;;14.89;100.00;101776.31;5072727;28;20090;-49
2022/10/29 09:03:00;;;;;;;79.90;38.72;;;;;;;14.94;100.00;101769.53;5072821;28;20032;-50
2022/10/29 09:05:48;;;;;;;82.18;39.15;;;;;;;15.02;100.00;101769.75;5072069;28;20021;-51
2022/10/29 09:08:37;;;;;;;71.97;39.00;;;;;;;15.05;100.00;101772.41;5072522;28;20028;-51
2022/10/29 09:11:09;;;;;;;84.60;39.92;;;;;;;15.20;100.00;101767.59;5072182;28;20028;-51
2022/10/29 09:13:53;;;;;;;77.93;39.00;;;;;;;15.30;100.00;101763.53;5071968;28;20032;-47
2022/10/29 09:16:23;;;;;;;76.00;37.97;;;;;;;15.47;100.00;101757.00;5072644;28;20029;-51
2022/10/29 09:19:10;;;;;;;79.22;36.83;;;;;;;15.75;100.00;101760.28;5071754;28;20020;-51
2022/10/29 09:21:45;;;;;;;63.42;32.92;;;;;;;15.90;100.00;101764.09;5072835;28;20059;-51
2022/10/29 09:24:34;;;;;;;69.25;33.85;;;;;;;16.08;100.00;101758.41;5072523;28;20029;-51
2022/10/29 09:27:07;;;;;;;69.10;33.97;;;;;;;16.10;100.00;101755.00;5071684;28;20028;-51
2022/10/29 09:29:35;;;;;;;67.50;32.60;;;;;;;16.28;100.00;101764.00;5072427;28;20107;-51
2022/10/29 09:32:06;;;;;;;66.25;31.90;;;;;;;16.24;100.00;101767.41;5072200;28;20383;-50
2022/10/29 09:34:41;;;;;;;63.65;30.75;;;;;;;16.24;100.00;101762.19;5071713;28;20047;-51
2022/10/29 09:37:39;;;;;;;62.25;31.42;;;;;;;16.25;100.00;101753.56;5072436;28;20052;-51
2022/10/29 09:40:05;;;;;;;;;;;;;;;16.36;100.00;101740.75;5071262;28;20043;-48
2022/10/29 09:42:38;;;;;;;64.32;31.55;;;;;;;16.30;100.00;101762.34;5072534;28;19912;-51
2022/10/29 09:45:08;;;;;;;62.90;30.02;;;;;;;16.34;100.00;101748.53;5072206;28;20059;-52
2022/10/29 09:47:44;;;;;;;61.33;32.70;;;;;;;16.40;100.00;101753.88;5071707;28;20551;-52
2022/10/29 09:50:19;;;;;;;70.43;34.65;;;;;;;16.67;100.00;101762.16;5072276;28;20025;-51
2022/10/29 09:52:47;;;;;;;67.47;32.33;;;;;;;16.72;100.00;101756.22;5072313;28;20040;-51
2022/10/29 09:55:24;;;;;;;61.67;31.02;;;;;;;16.83;100.00;101734.72;5071487;28;20384;-51
2022/10/29 09:57:50;;;;;;;64.95;30.92;;;;;;;17.02;100.00;101729.00;5072167;28;20029;-51
2022/10/29 10:00:19;;;;;;;58.53;29.73;;;;;;;17.18;100.00;101731.88;5072104;28;20108;-49
2022/10/29 10:02:53;;;;;;;58.10;30.40;;;;;;;17.33;100.00;101724.31;5071155;28;20056;-51
2022/10/29 10:05:25;;;;;;;59.38;29.10;;;;;;;17.58;100.00;101730.78;5072239;28;20028;-51
2022/10/29 10:08:05;;;;;;;54.45;28.77;;;;;;;18.04;100.00;101730.56;5071203;28;20020;-49
2022/10/29 10:10:32;;;;;;;63.25;27.55;;;;;;;18.42;96.82;101722.31;5072125;28;20032;-51
2022/10/29 10:13:02;;;;;;;61.22;26.35;;;;;;;18.78;94.22;101724.41;5071973;28;20029;-51
2022/10/29 10:15:32;;;;;;;61.60;25.58;;;;;;;19.27;91.05;101724.84;5071123;28;20480;-52
2022/10/29 10:17:58;;;;;;;52.83;25.60;;;;;;;19.60;88.71;101722.47;5072141;28;20033;-50
2022/10/29 10:20:36;;;;;;;45.67;23.03;;;;;;;20.18;86.95;101728.03;5071953;28;20048;-51
2022/10/29 10:23:18;;;;;;;50.63;23.30;;;;;;;20.70;84.81;101726.44;5073875;28;20031;-49
2022/10/29 10:25:44;;;;;;;57.40;22.05;;;;;;;20.55;79.43;101733.38;5075298;28;20028;-51
2022/10/29 10:28:18;;;;;;;58.15;23.08;;;;;;;20.58;82.56;101727.28;5075316;28;20093;-51
2022/10/29 10:31:06;;;;;;;53.78;21.05;;;;;;;21.04;83.08;101722.13;5074685;28;20112;-51
2022/10/29 10:33:34;;;;;;;58.40;21.65;;;;;;;20.81;75.70;101714.25;5075371;28;20063;-51
2022/10/29 10:36:05;;;;;;;46.65;21.42;;;;;;;20.90;77.58;101715.97;5074388;28;20039;-51
2022/10/29 10:38:44;;;;;;;52.83;20.63;;;;;;;21.17;78.55;101716.84;5075199;28;20033;-51
2022/10/29 10:41:11;;;;;;;43.60;20.25;;;;;;;21.31;75.38;101707.22;5075253;28;20059;-52
2022/10/29 10:43:40;;;;;;;;;;;;;;;21.63;79.19;101711.56;5074924;28;20028;-52
2022/10/29 10:46:13;;;;;;;47.20;18.77;;;;;;;21.65;75.16;101704.56;5075027;28;19938;-50
2022/10/29 10:48:39;;;;;;;42.85;18.27;;;;;;;22.09;71.96;101701.78;5074985;28;20059;-51
2022/10/29 10:51:25;;;;;;;45.38;18.30;;;;;;;22.19;75.91;101706.09;5074242;28;20048;-51
2022/10/29 10:53:50;;;;;;;51.83;18.20;;;;;;;22.20;69.74;101707.84;5074846;28;20062;-50
2022/10/29 10:56:21;;;;;;;54.83;17.92;;;;;;;22.47;68.59;101690.22;5074900;28;20107;-52
2022/10/29 10:58:53;;;;;;;53.28;16.95;;;;;;;22.42;68.33;101686.75;5073992;28;20369;-51
2022/10/29 11:01:25;;;;;;;45.08;15.68;;;;;;;22.38;67.09;101690.28;5074721;28;20158;-51
2022/10/29 11:04:09;;;;;;;45.60;15.45;;;;;;;22.73;70.84;101689.16;5074706;28;20020;-51
2022/10/29 11:06:39;;;;;;;41.45;15.18;;;;;;;22.71;66.91;101688.28;5074836;28;20028;-51
2022/10/29 11:09:15;;;;;;;41.33;14.35;;;;;;;22.84;66.72;101692.59;5074551;28;20044;-50
2022/10/29 11:11:54;;;;;;;44.85;14.02;;;;;;;22.82;66.54;101696.97;5073829;28;20029;-50